sensor_id;sensor_type;location;lat;lon;timestamp;P1;durP1;ratioP1;P2;durP2;ratioP2
26269;SDS011;15937;50.612;6.656;2023-04-28T00:00:47;8.43;;;4.38;;
26269;SDS011;15937;50.612;6.656;2023-04-28T00:04:49;10.98;;;4.55;;
26269;SDS011;15937;50.612;6.656;2023-04-28T00:08:51;6.47;;;4.32;;
26269;SDS011;15937;50.612;6.656;2023-04-28T00:12:52;7.90;;;4.35;;
26269;SDS011;15937;50.612;6.656;2023-04-28T00:16:54;9.98;;;3.95;;
26269;SDS011;15937;50.612;6.656;2023-04-28T00:20:58;15.88;;;4.85;;
26269;SDS011;15937;50.612;6.656;2023-04-28T00:25:01;11.10;;;4.22;;
26269;SDS011;15937;50.612;6.656;2023-04-28T00:29:05;10.38;;;4.30;;
26269;SDS011;15937;50.612;6.656;2023-04-28T00:33:06;14.50;;;4.35;;
26269;SDS011;15937;50.612;6.656;2023-04-28T00:37:08;7.72;;;4.05;;
26269;SDS011;15937;50.612;6.656;2023-04-28T00:41:10;9.10;;;4.93;;
26269;SDS011;15937;50.612;6.656;2023-04-28T00:45:12;4.90;;;3.73;;
26269;SDS011;15937;50.612;6.656;2023-04-28T00:49:14;9.65;;;4.40;;
26269;SDS011;15937;50.612;6.656;2023-04-28T00:53:16;11.40;;;4.33;;
26269;SDS011;15937;50.612;6.656;2023-04-28T00:57:18;9.85;;;4.65;;
26269;SDS011;15937;50.612;6.656;2023-04-28T01:01:20;9.02;;;4.50;;
26269;SDS011;15937;50.612;6.656;2023-04-28T01:05:23;10.93;;;4.53;;
26269;SDS011;15937;50.612;6.656;2023-04-28T01:09:26;7.38;;;3.90;;
26269;SDS011;15937;50.612;6.656;2023-04-28T01:13:28;12.60;;;4.35;;
26269;SDS011;15937;50.612;6.656;2023-04-28T01:17:30;7.07;;;4.43;;
26269;SDS011;15937;50.612;6.656;2023-04-28T01:21:32;16.77;;;4.88;;
26269;SDS011;15937;50.612;6.656;2023-04-28T01:25:34;14.40;;;5.60;;
26269;SDS011;15937;50.612;6.656;2023-04-28T01:29:36;7.70;;;4.60;;
26269;SDS011;15937;50.612;6.656;2023-04-28T01:33:37;11.48;;;4.68;;
26269;SDS011;15937;50.612;6.656;2023-04-28T01:37:39;13.13;;;4.93;;
26269;SDS011;15937;50.612;6.656;2023-04-28T01:41:41;12.73;;;4.50;;
26269;SDS011;15937;50.612;6.656;2023-04-28T01:45:43;11.05;;;4.47;;
26269;SDS011;15937;50.612;6.656;2023-04-28T01:49:44;14.93;;;4.80;;
26269;SDS011;15937;50.612;6.656;2023-04-28T01:53:48;12.48;;;4.90;;
26269;SDS011;15937;50.612;6.656;2023-04-28T01:57:50;9.55;;;5.03;;
26269;SDS011;15937;50.612;6.656;2023-04-28T02:01:51;17.92;;;4.85;;
26269;SDS011;15937;50.612;6.656;2023-04-28T02:05:53;13.50;;;4.50;;
26269;SDS011;15937;50.612;6.656;2023-04-28T02:09:55;7.97;;;4.32;;
26269;SDS011;15937;50.612;6.656;2023-04-28T02:13:57;10.25;;;4.15;;
26269;SDS011;15937;50.612;6.656;2023-04-28T02:17:58;11.85;;;5.10;;
26269;SDS011;15937;50.612;6.656;2023-04-28T02:22:00;8.43;;;4.10;;
26269;SDS011;15937;50.612;6.656;2023-04-28T02:26:02;7.45;;;4.45;;
26269;SDS011;15937;50.612;6.656;2023-04-28T02:30:04;12.07;;;4.50;;
26269;SDS011;15937;50.612;6.656;2023-04-28T02:34:07;14.98;;;5.22;;
26269;SDS011;15937;50.612;6.656;2023-04-28T02:38:08;7.53;;;4.18;;
26269;SDS011;15937;50.612;6.656;2023-04-28T02:42:10;9.07;;;4.50;;
26269;SDS011;15937;50.612;6.656;2023-04-28T02:46:12;10.93;;;4.70;;
26269;SDS011;15937;50.612;6.656;2023-04-28T02:50:13;11.88;;;4.80;;
26269;SDS011;15937;50.612;6.656;2023-04-28T02:54:15;10.13;;;4.25;;
26269;SDS011;15937;50.612;6.656;2023-04-28T02:58:17;10.87;;;4.60;;
26269;SDS011;15937;50.612;6.656;2023-04-28T03:02:19;11.27;;;4.15;;
26269;SDS011;15937;50.612;6.656;2023-04-28T03:06:23;8.02;;;4.72;;
26269;SDS011;15937;50.612;6.656;2023-04-28T03:10:25;14.02;;;4.57;;
26269;SDS011;15937;50.612;6.656;2023-04-28T03:14:27;8.35;;;4.93;;
26269;SDS011;15937;50.612;6.656;2023-04-28T03:18:28;14.38;;;4.22;;
26269;SDS011;15937;50.612;6.656;2023-04-28T03:22:30;9.63;;;5.57;;
26269;SDS011;15937;50.612;6.656;2023-04-28T03:26:51;12.05;;;4.68;;
26269;SDS011;15937;50.612;6.656;2023-04-28T03:31:27;6.80;;;4.35;;
26269;SDS011;15937;50.612;6.656;2023-04-28T03:35:29;7.72;;;5.07;;
26269;SDS011;15937;50.612;6.656;2023-04-28T03:39:31;10.55;;;4.78;;
26269;SDS011;15937;50.612;6.656;2023-04-28T03:43:36;6.63;;;4.28;;
26269;SDS011;15937;50.612;6.656;2023-04-28T03:47:38;7.38;;;4.60;;
26269;SDS011;15937;50.612;6.656;2023-04-28T03:51:46;12.98;;;4.65;;
26269;SDS011;15937;50.612;6.656;2023-04-28T03:55:57;12.48;;;5.13;;
26269;SDS011;15937;50.612;6.656;2023-04-28T04:00:13;5.68;;;4.25;;
26269;SDS011;15937;50.612;6.656;2023-04-28T04:04:15;11.88;;;4.90;;
26269;SDS011;15937;50.612;6.656;2023-04-28T04:08:18;15.32;;;5.20;;
26269;SDS011;15937;50.612;6.656;2023-04-28T04:12:23;11.65;;;4.68;;
26269;SDS011;15937;50.612;6.656;2023-04-28T04:21:07;7.30;;;4.32;;
26269;SDS011;15937;50.612;6.656;2023-04-28T04:25:12;13.15;;;4.55;;
26269;SDS011;15937;50.612;6.656;2023-04-28T04:29:17;7.93;;;4.60;;
26269;SDS011;15937;50.612;6.656;2023-04-28T04:33:22;12.18;;;5.32;;
26269;SDS011;15937;50.612;6.656;2023-04-28T04:37:51;7.20;;;4.90;;
26269;SDS011;15937;50.612;6.656;2023-04-28T04:42:05;15.00;;;5.60;;
26269;SDS011;15937;50.612;6.656;2023-04-28T04:46:23;15.93;;;5.60;;
26269;SDS011;15937;50.612;6.656;2023-04-28T04:50:25;15.35;;;6.28;;
26269;SDS011;15937;50.612;6.656;2023-04-28T04:54:42;10.25;;;5.47;;
26269;SDS011;15937;50.612;6.656;2023-04-28T04:59:01;13.02;;;5.88;;
26269;SDS011;15937;50.612;6.656;2023-04-28T05:03:15;12.45;;;6.47;;
26269;SDS011;15937;50.612;6.656;2023-04-28T05:07:20;8.52;;;5.75;;
26269;SDS011;15937;50.612;6.656;2023-04-28T05:11:33;13.38;;;5.88;;
26269;SDS011;15937;50.612;6.656;2023-04-28T05:15:35;14.40;;;5.70;;
26269;SDS011;15937;50.612;6.656;2023-04-28T05:19:42;19.10;;;6.38;;
26269;SDS011;15937;50.612;6.656;2023-04-28T05:23:49;9.02;;;5.10;;
26269;SDS011;15937;50.612;6.656;2023-04-28T05:28:15;12.13;;;5.30;;
26269;SDS011;15937;50.612;6.656;2023-04-28T05:32:19;16.50;;;5.80;;
26269;SDS011;15937;50.612;6.656;2023-04-28T05:36:21;10.13;;;5.75;;
26269;SDS011;15937;50.612;6.656;2023-04-28T05:40:23;8.77;;;5.45;;
26269;SDS011;15937;50.612;6.656;2023-04-28T05:44:25;11.77;;;6.25;;
26269;SDS011;15937;50.612;6.656;2023-04-28T05:48:26;13.32;;;5.95;;
26269;SDS011;15937;50.612;6.656;2023-04-28T05:52:28;11.00;;;7.20;;
26269;SDS011;15937;50.612;6.656;2023-04-28T05:56:30;15.73;;;7.07;;
26269;SDS011;15937;50.612;6.656;2023-04-28T06:00:32;10.60;;;6.18;;
26269;SDS011;15937;50.612;6.656;2023-04-28T06:04:34;12.00;;;6.35;;
26269;SDS011;15937;50.612;6.656;2023-04-28T06:08:37;18.17;;;7.47;;
26269;SDS011;15937;50.612;6.656;2023-04-28T06:12:39;22.63;;;5.93;;
26269;SDS011;15937;50.612;6.656;2023-04-28T06:16:41;18.30;;;6.47;;
26269;SDS011;15937;50.612;6.656;2023-04-28T06:20:42;15.15;;;7.50;;
26269;SDS011;15937;50.612;6.656;2023-04-28T06:24:44;9.32;;;6.53;;
26269;SDS011;15937;50.612;6.656;2023-04-28T06:28:46;10.32;;;6.28;;
26269;SDS011;15937;50.612;6.656;2023-04-28T06:32:48;10.13;;;5.93;;
26269;SDS011;15937;50.612;6.656;2023-04-28T06:36:49;13.25;;;6.30;;
26269;SDS011;15937;50.612;6.656;2023-04-28T06:40:51;12.82;;;6.32;;
26269;SDS011;15937;50.612;6.656;2023-04-28T06:44:53;15.63;;;7.15;;
26269;SDS011;15937;50.612;6.656;2023-04-28T06:48:55;11.45;;;7.30;;
26269;SDS011;15937;50.612;6.656;2023-04-28T06:52:56;13.80;;;6.82;;
26269;SDS011;15937;50.612;6.656;2023-04-28T06:56:58;13.53;;;6.80;;
26269;SDS011;15937;50.612;6.656;2023-04-28T07:01:01;20.65;;;6.78;;
26269;SDS011;15937;50.612;6.656;2023-04-28T07:05:06;12.63;;;6.70;;
26269;SDS011;15937;50.612;6.656;2023-04-28T07:09:08;13.80;;;6.53;;
26269;SDS011;15937;50.612;6.656;2023-04-28T07:13:10;5.47;;;4.10;;
26269;SDS011;15937;50.612;6.656;2023-04-28T07:17:12;9.30;;;4.68;;
26269;SDS011;15937;50.612;6.656;2023-04-28T07:21:14;7.30;;;4.05;;
26269;SDS011;15937;50.612;6.656;2023-04-28T07:25:16;6.85;;;3.78;;
26269;SDS011;15937;50.612;6.656;2023-04-28T07:29:17;5.78;;;3.53;;
26269;SDS011;15937;50.612;6.656;2023-04-28T07:33:19;4.70;;;3.17;;
26269;SDS011;15937;50.612;6.656;2023-04-28T07:37:21;2.70;;;2.40;;
26269;SDS011;15937;50.612;6.656;2023-04-28T07:41:25;3.70;;;2.50;;
26269;SDS011;15937;50.612;6.656;2023-04-28T07:45:28;5.60;;;2.90;;
26269;SDS011;15937;50.612;6.656;2023-04-28T07:49:30;4.70;;;3.47;;
26269;SDS011;15937;50.612;6.656;2023-04-28T07:53:32;5.93;;;2.92;;
26269;SDS011;15937;50.612;6.656;2023-04-28T07:57:34;3.45;;;2.47;;
26269;SDS011;15937;50.612;6.656;2023-04-28T08:01:36;8.80;;;3.20;;
26269;SDS011;15937;50.612;6.656;2023-04-28T08:05:38;5.18;;;2.25;;
26269;SDS011;15937;50.612;6.656;2023-04-28T08:09:40;3.65;;;2.90;;
26269;SDS011;15937;50.612;6.656;2023-04-28T08:13:44;2.80;;;2.28;;
26269;SDS011;15937;50.612;6.656;2023-04-28T08:17:47;2.53;;;1.88;;
26269;SDS011;15937;50.612;6.656;2023-04-28T08:21:48;1.60;;;1.50;;
26269;SDS011;15937;50.612;6.656;2023-04-28T08:25:50;2.37;;;1.80;;
26269;SDS011;15937;50.612;6.656;2023-04-28T08:29:52;3.50;;;1.92;;
26269;SDS011;15937;50.612;6.656;2023-04-28T08:33:54;2.63;;;1.80;;
26269;SDS011;15937;50.612;6.656;2023-04-28T08:37:56;6.55;;;1.50;;
26269;SDS011;15937;50.612;6.656;2023-04-28T08:41:58;2.13;;;1.80;;
26269;SDS011;15937;50.612;6.656;2023-04-28T08:46:06;1.08;;;1.00;;
26269;SDS011;15937;50.612;6.656;2023-04-28T08:50:08;1.60;;;1.38;;
26269;SDS011;15937;50.612;6.656;2023-04-28T08:54:13;1.83;;;1.10;;
26269;SDS011;15937;50.612;6.656;2023-04-28T08:58:26;1.67;;;1.35;;
26269;SDS011;15937;50.612;6.656;2023-04-28T09:02:28;3.25;;;1.08;;
26269;SDS011;15937;50.612;6.656;2023-04-28T09:06:34;3.65;;;0.80;;
26269;SDS011;15937;50.612;6.656;2023-04-28T09:10:36;1.35;;;1.20;;
26269;SDS011;15937;50.612;6.656;2023-04-28T09:14:38;1.08;;;0.82;;
26269;SDS011;15937;50.612;6.656;2023-04-28T09:18:40;3.67;;;1.30;;
26269;SDS011;15937;50.612;6.656;2023-04-28T09:23:11;2.78;;;1.52;;
26269;SDS011;15937;50.612;6.656;2023-04-28T09:27:18;3.90;;;1.52;;
26269;SDS011;15937;50.612;6.656;2023-04-28T09:31:29;1.88;;;1.70;;
26269;SDS011;15937;50.612;6.656;2023-04-28T09:39:42;2.15;;;1.52;;
26269;SDS011;15937;50.612;6.656;2023-04-28T09:43:45;1.92;;;1.10;;
26269;SDS011;15937;50.612;6.656;2023-04-28T09:47:46;1.50;;;1.10;;
26269;SDS011;15937;50.612;6.656;2023-04-28T09:51:51;5.00;;;1.00;;
26269;SDS011;15937;50.612;6.656;2023-04-28T09:55:53;3.92;;;1.00;;
26269;SDS011;15937;50.612;6.656;2023-04-28T09:59:57;0.98;;;0.90;;
26269;SDS011;15937;50.612;6.656;2023-04-28T10:03:59;4.97;;;1.00;;
26269;SDS011;15937;50.612;6.656;2023-04-28T10:08:03;1.45;;;1.17;;
26269;SDS011;15937;50.612;6.656;2023-04-28T10:12:05;5.57;;;1.07;;
26269;SDS011;15937;50.612;6.656;2023-04-28T10:16:07;1.10;;;1.00;;
26269;SDS011;15937;50.612;6.656;2023-04-28T10:20:10;1.13;;;1.02;;
26269;SDS011;15937;50.612;6.656;2023-04-28T10:24:14;2.45;;;1.60;;
26269;SDS011;15937;50.612;6.656;2023-04-28T10:28:18;1.20;;;1.08;;
26269;SDS011;15937;50.612;6.656;2023-04-28T10:32:21;1.93;;;1.03;;
26269;SDS011;15937;50.612;6.656;2023-04-28T10:36:45;1.45;;;1.00;;
26269;SDS011;15937;50.612;6.656;2023-04-28T10:40:52;1.10;;;1.00;;
26269;SDS011;15937;50.612;6.656;2023-04-28T10:44:54;2.63;;;0.93;;
26269;SDS011;15937;50.612;6.656;2023-04-28T10:48:56;2.13;;;1.10;;
26269;SDS011;15937;50.612;6.656;2023-04-28T10:52:58;0.90;;;0.90;;
26269;SDS011;15937;50.612;6.656;2023-04-28T10:57:16;2.20;;;1.30;;
26269;SDS011;15937;50.612;6.656;2023-04-28T11:05:35;0.80;;;0.80;;
26269;SDS011;15937;50.612;6.656;2023-04-28T11:13:39;1.40;;;1.00;;
26269;SDS011;15937;50.612;6.656;2023-04-28T11:17:42;2.72;;;1.30;;
26269;SDS011;15937;50.612;6.656;2023-04-28T11:21:46;3.65;;;1.35;;
26269;SDS011;15937;50.612;6.656;2023-04-28T11:25:55;6.60;;;1.35;;
26269;SDS011;15937;50.612;6.656;2023-04-28T11:29:58;3.00;;;1.83;;
26269;SDS011;15937;50.612;6.656;2023-04-28T11:34:05;4.43;;;1.48;;
26269;SDS011;15937;50.612;6.656;2023-04-28T11:38:12;1.73;;;1.30;;
26269;SDS011;15937;50.612;6.656;2023-04-28T11:42:13;1.98;;;1.45;;
26269;SDS011;15937;50.612;6.656;2023-04-28T11:46:16;2.10;;;1.57;;
26269;SDS011;15937;50.612;6.656;2023-04-28T11:50:35;1.45;;;1.35;;
26269;SDS011;15937;50.612;6.656;2023-04-28T11:54:37;3.92;;;1.60;;
26269;SDS011;15937;50.612;6.656;2023-04-28T11:58:42;2.40;;;1.45;;
26269;SDS011;15937;50.612;6.656;2023-04-28T12:02:44;1.67;;;1.38;;
26269;SDS011;15937;50.612;6.656;2023-04-28T12:06:46;1.55;;;1.35;;
26269;SDS011;15937;50.612;6.656;2023-04-28T12:11:06;1.27;;;1.15;;
26269;SDS011;15937;50.612;6.656;2023-04-28T12:15:10;4.50;;;1.13;;
26269;SDS011;15937;50.612;6.656;2023-04-28T12:19:12;2.23;;;1.33;;
26269;SDS011;15937;50.612;6.656;2023-04-28T12:23:15;2.00;;;1.30;;
26269;SDS011;15937;50.612;6.656;2023-04-28T12:27:28;1.17;;;1.00;;
26269;SDS011;15937;50.612;6.656;2023-04-28T12:31:31;2.15;;;1.27;;
26269;SDS011;15937;50.612;6.656;2023-04-28T12:35:33;2.25;;;1.58;;
26269;SDS011;15937;50.612;6.656;2023-04-28T12:39:35;1.48;;;0.90;;
26269;SDS011;15937;50.612;6.656;2023-04-28T12:43:40;1.85;;;1.05;;
26269;SDS011;15937;50.612;6.656;2023-04-28T12:47:44;0.82;;;0.82;;
26269;SDS011;15937;50.612;6.656;2023-04-28T12:51:47;0.80;;;0.80;;
26269;SDS011;15937;50.612;6.656;2023-04-28T12:55:49;17.15;;;1.65;;
26269;SDS011;15937;50.612;6.656;2023-04-28T12:59:52;1.55;;;1.45;;
26269;SDS011;15937;50.612;6.656;2023-04-28T13:03:55;1.67;;;0.85;;
26269;SDS011;15937;50.612;6.656;2023-04-28T13:07:57;2.30;;;1.33;;
26269;SDS011;15937;50.612;6.656;2023-04-28T13:12:00;1.55;;;1.20;;
26269;SDS011;15937;50.612;6.656;2023-04-28T13:16:04;7.78;;;1.98;;
26269;SDS011;15937;50.612;6.656;2023-04-28T13:20:06;2.10;;;1.33;;
26269;SDS011;15937;50.612;6.656;2023-04-28T13:24:09;1.17;;;0.68;;
26269;SDS011;15937;50.612;6.656;2023-04-28T13:28:10;3.60;;;1.05;;
26269;SDS011;15937;50.612;6.656;2023-04-28T13:32:13;7.65;;;1.17;;
26269;SDS011;15937;50.612;6.656;2023-04-28T13:36:15;2.67;;;1.00;;
26269;SDS011;15937;50.612;6.656;2023-04-28T13:40:17;2.45;;;1.10;;
26269;SDS011;15937;50.612;6.656;2023-04-28T13:44:19;2.85;;;1.27;;
26269;SDS011;15937;50.612;6.656;2023-04-28T13:48:21;2.15;;;1.33;;
26269;SDS011;15937;50.612;6.656;2023-04-28T13:52:23;3.70;;;1.50;;
26269;SDS011;15937;50.612;6.656;2023-04-28T13:56:25;8.00;;;3.20;;
26269;SDS011;15937;50.612;6.656;2023-04-28T14:00:27;4.53;;;1.70;;
26269;SDS011;15937;50.612;6.656;2023-04-28T14:04:29;7.82;;;3.70;;
26269;SDS011;15937;50.612;6.656;2023-04-28T14:08:31;4.65;;;1.95;;
26269;SDS011;15937;50.612;6.656;2023-04-28T14:12:33;3.50;;;1.38;;
26269;SDS011;15937;50.612;6.656;2023-04-28T14:16:37;2.80;;;1.10;;
26269;SDS011;15937;50.612;6.656;2023-04-28T14:20:39;4.00;;;2.00;;
26269;SDS011;15937;50.612;6.656;2023-04-28T14:24:41;6.13;;;3.33;;
26269;SDS011;15937;50.612;6.656;2023-04-28T14:28:43;2.97;;;2.00;;
26269;SDS011;15937;50.612;6.656;2023-04-28T14:32:45;3.53;;;1.52;;
26269;SDS011;15937;50.612;6.656;2023-04-28T14:36:46;3.70;;;1.43;;
26269;SDS011;15937;50.612;6.656;2023-04-28T14:40:48;5.65;;;1.60;;
26269;SDS011;15937;50.612;6.656;2023-04-28T14:44:50;4.97;;;1.43;;
26269;SDS011;15937;50.612;6.656;2023-04-28T14:48:54;3.78;;;1.00;;
26269;SDS011;15937;50.612;6.656;2023-04-28T14:52:58;1.35;;;1.00;;
26269;SDS011;15937;50.612;6.656;2023-04-28T14:57:05;2.45;;;1.15;;
26269;SDS011;15937;50.612;6.656;2023-04-28T15:01:07;8.38;;;1.10;;
26269;SDS011;15937;50.612;6.656;2023-04-28T15:05:09;2.17;;;1.10;;
26269;SDS011;15937;50.612;6.656;2023-04-28T15:09:11;0.98;;;0.85;;
26269;SDS011;15937;50.612;6.656;2023-04-28T15:13:21;1.30;;;0.90;;
26269;SDS011;15937;50.612;6.656;2023-04-28T15:17:25;1.00;;;0.82;;
26269;SDS011;15937;50.612;6.656;2023-04-28T15:21:27;9.82;;;1.25;;
26269;SDS011;15937;50.612;6.656;2023-04-28T15:29:31;1.60;;;1.20;;
26269;SDS011;15937;50.612;6.656;2023-04-28T15:33:33;4.03;;;1.05;;
26269;SDS011;15937;50.612;6.656;2023-04-28T15:37:42;2.08;;;1.20;;
26269;SDS011;15937;50.612;6.656;2023-04-28T15:41:46;1.80;;;1.33;;
26269;SDS011;15937;50.612;6.656;2023-04-28T15:45:48;3.67;;;1.17;;
26269;SDS011;15937;50.612;6.656;2023-04-28T15:49:50;2.00;;;1.07;;
26269;SDS011;15937;50.612;6.656;2023-04-28T15:53:52;1.43;;;0.90;;
26269;SDS011;15937;50.612;6.656;2023-04-28T15:57:55;2.95;;;1.20;;
26269;SDS011;15937;50.612;6.656;2023-04-28T16:01:57;2.95;;;2.10;;
26269;SDS011;15937;50.612;6.656;2023-04-28T16:05:59;2.15;;;1.17;;
26269;SDS011;15937;50.612;6.656;2023-04-28T16:10:01;1.27;;;0.90;;
26269;SDS011;15937;50.612;6.656;2023-04-28T16:14:06;3.13;;;1.52;;
26269;SDS011;15937;50.612;6.656;2023-04-28T16:18:08;0.95;;;0.90;;
26269;SDS011;15937;50.612;6.656;2023-04-28T16:22:10;2.83;;;1.20;;
26269;SDS011;15937;50.612;6.656;2023-04-28T16:26:12;6.35;;;1.30;;
26269;SDS011;15937;50.612;6.656;2023-04-28T16:30:15;1.48;;;1.30;;
26269;SDS011;15937;50.612;6.656;2023-04-28T16:34:17;2.47;;;1.75;;
26269;SDS011;15937;50.612;6.656;2023-04-28T16:38:19;2.58;;;1.50;;
26269;SDS011;15937;50.612;6.656;2023-04-28T16:42:21;1.13;;;1.00;;
26269;SDS011;15937;50.612;6.656;2023-04-28T16:46:23;1.17;;;1.08;;
26269;SDS011;15937;50.612;6.656;2023-04-28T16:50:25;1.77;;;1.47;;
26269;SDS011;15937;50.612;6.656;2023-04-28T16:54:27;1.40;;;1.30;;
26269;SDS011;15937;50.612;6.656;2023-04-28T16:58:29;1.35;;;1.25;;
26269;SDS011;15937;50.612;6.656;2023-04-28T17:02:31;1.75;;;1.33;;
26269;SDS011;15937;50.612;6.656;2023-04-28T17:06:34;1.83;;;1.30;;
26269;SDS011;15937;50.612;6.656;2023-04-28T17:10:36;1.05;;;1.02;;
26269;SDS011;15937;50.612;6.656;2023-04-28T17:14:38;1.45;;;1.35;;
26269;SDS011;15937;50.612;6.656;2023-04-28T17:18:40;2.23;;;1.50;;
26269;SDS011;15937;50.612;6.656;2023-04-28T17:22:43;3.28;;;1.38;;
26269;SDS011;15937;50.612;6.656;2023-04-28T17:26:44;4.47;;;1.88;;
26269;SDS011;15937;50.612;6.656;2023-04-28T17:30:46;4.80;;;2.60;;
26269;SDS011;15937;50.612;6.656;2023-04-28T17:34:48;1.83;;;1.20;;
26269;SDS011;15937;50.612;6.656;2023-04-28T17:38:49;2.65;;;1.83;;
26269;SDS011;15937;50.612;6.656;2023-04-28T17:42:55;3.85;;;2.58;;
26269;SDS011;15937;50.612;6.656;2023-04-28T17:46:57;2.08;;;1.58;;
26269;SDS011;15937;50.612;6.656;2023-04-28T17:51:00;4.38;;;2.53;;
26269;SDS011;15937;50.612;6.656;2023-04-28T17:55:02;2.83;;;1.70;;
26269;SDS011;15937;50.612;6.656;2023-04-28T17:59:04;2.55;;;1.88;;
26269;SDS011;15937;50.612;6.656;2023-04-28T18:03:06;4.22;;;2.20;;
26269;SDS011;15937;50.612;6.656;2023-04-28T18:07:08;6.90;;;1.70;;
26269;SDS011;15937;50.612;6.656;2023-04-28T18:11:09;7.32;;;2.28;;
26269;SDS011;15937;50.612;6.656;2023-04-28T18:15:11;4.25;;;1.98;;
26269;SDS011;15937;50.612;6.656;2023-04-28T18:19:13;5.07;;;1.83;;
26269;SDS011;15937;50.612;6.656;2023-04-28T18:23:15;2.55;;;1.67;;
26269;SDS011;15937;50.612;6.656;2023-04-28T18:27:17;3.28;;;2.85;;
26269;SDS011;15937;50.612;6.656;2023-04-28T18:31:19;5.72;;;1.30;;
26269;SDS011;15937;50.612;6.656;2023-04-28T18:35:21;2.80;;;1.88;;
26269;SDS011;15937;50.612;6.656;2023-04-28T18:39:23;3.72;;;1.58;;
26269;SDS011;15937;50.612;6.656;2023-04-28T18:43:24;6.57;;;3.50;;
26269;SDS011;15937;50.612;6.656;2023-04-28T18:47:28;1.77;;;1.45;;
26269;SDS011;15937;50.612;6.656;2023-04-28T18:51:32;5.43;;;1.70;;
26269;SDS011;15937;50.612;6.656;2023-04-28T18:55:33;2.20;;;1.50;;
26269;SDS011;15937;50.612;6.656;2023-04-28T18:59:35;6.00;;;2.10;;
26269;SDS011;15937;50.612;6.656;2023-04-28T19:03:37;4.32;;;1.77;;
26269;SDS011;15937;50.612;6.656;2023-04-28T19:07:39;5.07;;;2.37;;
26269;SDS011;15937;50.612;6.656;2023-04-28T19:11:42;3.05;;;2.17;;
26269;SDS011;15937;50.612;6.656;2023-04-28T19:15:43;2.78;;;2.08;;
26269;SDS011;15937;50.612;6.656;2023-04-28T19:19:47;5.28;;;1.80;;
26269;SDS011;15937;50.612;6.656;2023-04-28T19:23:49;3.67;;;1.80;;
26269;SDS011;15937;50.612;6.656;2023-04-28T19:27:51;2.95;;;1.90;;
26269;SDS011;15937;50.612;6.656;2023-04-28T19:31:52;3.00;;;1.70;;
26269;SDS011;15937;50.612;6.656;2023-04-28T19:35:54;2.75;;;2.10;;
26269;SDS011;15937;50.612;6.656;2023-04-28T19:39:56;2.78;;;1.98;;
26269;SDS011;15937;50.612;6.656;2023-04-28T19:43:58;3.67;;;2.13;;
26269;SDS011;15937;50.612;6.656;2023-04-28T19:48:00;3.33;;;2.10;;
26269;SDS011;15937;50.612;6.656;2023-04-28T19:52:02;2.30;;;2.00;;
26269;SDS011;15937;50.612;6.656;2023-04-28T19:56:05;4.13;;;2.28;;
26269;SDS011;15937;50.612;6.656;2023-04-28T20:00:10;3.53;;;2.40;;
26269;SDS011;15937;50.612;6.656;2023-04-28T20:04:13;4.40;;;3.00;;
26269;SDS011;15937;50.612;6.656;2023-04-28T20:08:15;6.50;;;3.00;;
26269;SDS011;15937;50.612;6.656;2023-04-28T20:12:17;2.97;;;1.95;;
26269;SDS011;15937;50.612;6.656;2023-04-28T20:16:21;6.53;;;1.85;;
26269;SDS011;15937;50.612;6.656;2023-04-28T20:20:24;2.75;;;2.13;;
26269;SDS011;15937;50.612;6.656;2023-04-28T20:24:26;2.80;;;1.77;;
26269;SDS011;15937;50.612;6.656;2023-04-28T20:28:29;4.50;;;1.83;;
26269;SDS011;15937;50.612;6.656;2023-04-28T20:32:31;2.35;;;1.75;;
26269;SDS011;15937;50.612;6.656;2023-04-28T20:36:33;1.80;;;1.55;;
26269;SDS011;15937;50.612;6.656;2023-04-28T20:40:34;2.33;;;1.60;;
26269;SDS011;15937;50.612;6.656;2023-04-28T20:44:36;1.77;;;1.58;;
26269;SDS011;15937;50.612;6.656;2023-04-28T20:48:39;2.85;;;1.80;;
26269;SDS011;15937;50.612;6.656;2023-04-28T20:52:41;3.63;;;1.65;;
26269;SDS011;15937;50.612;6.656;2023-04-28T20:56:42;1.58;;;1.35;;
26269;SDS011;15937;50.612;6.656;2023-04-28T21:00:45;1.70;;;1.60;;
26269;SDS011;15937;50.612;6.656;2023-04-28T21:04:47;1.60;;;1.40;;
26269;SDS011;15937;50.612;6.656;2023-04-28T21:08:49;3.57;;;1.90;;
26269;SDS011;15937;50.612;6.656;2023-04-28T21:12:51;2.92;;;1.52;;
26269;SDS011;15937;50.612;6.656;2023-04-28T21:16:52;2.45;;;1.55;;
26269;SDS011;15937;50.612;6.656;2023-04-28T21:20:54;4.80;;;1.73;;
26269;SDS011;15937;50.612;6.656;2023-04-28T21:24:56;2.80;;;1.75;;
26269;SDS011;15937;50.612;6.656;2023-04-28T21:28:58;2.83;;;2.00;;
26269;SDS011;15937;50.612;6.656;2023-04-28T21:33:00;4.23;;;2.00;;
26269;SDS011;15937;50.612;6.656;2023-04-28T21:37:05;4.07;;;1.90;;
26269;SDS011;15937;50.612;6.656;2023-04-28T21:41:06;4.20;;;2.50;;
26269;SDS011;15937;50.612;6.656;2023-04-28T21:45:09;2.40;;;1.93;;
26269;SDS011;15937;50.612;6.656;2023-04-28T21:49:11;4.60;;;2.42;;
26269;SDS011;15937;50.612;6.656;2023-04-28T21:53:13;4.65;;;2.88;;
26269;SDS011;15937;50.612;6.656;2023-04-28T21:57:15;3.20;;;2.50;;
26269;SDS011;15937;50.612;6.656;2023-04-28T22:01:17;2.92;;;2.20;;
26269;SDS011;15937;50.612;6.656;2023-04-28T22:05:19;5.53;;;2.17;;
26269;SDS011;15937;50.612;6.656;2023-04-28T22:09:21;2.60;;;2.20;;
26269;SDS011;15937;50.612;6.656;2023-04-28T22:13:23;4.90;;;2.80;;
26269;SDS011;15937;50.612;6.656;2023-04-28T22:17:25;2.83;;;2.15;;
26269;SDS011;15937;50.612;6.656;2023-04-28T22:21:27;2.50;;;2.07;;
26269;SDS011;15937;50.612;6.656;2023-04-28T22:25:29;3.33;;;1.95;;
26269;SDS011;15937;50.612;6.656;2023-04-28T22:29:31;4.00;;;2.70;;
26269;SDS011;15937;50.612;6.656;2023-04-28T22:33:33;4.85;;;2.63;;
26269;SDS011;15937;50.612;6.656;2023-04-28T22:37:34;7.13;;;2.67;;
26269;SDS011;15937;50.612;6.656;2023-04-28T22:41:38;8.30;;;3.58;;
26269;SDS011;15937;50.612;6.656;2023-04-28T22:45:39;6.88;;;4.45;;
26269;SDS011;15937;50.612;6.656;2023-04-28T22:49:43;6.03;;;4.68;;
26269;SDS011;15937;50.612;6.656;2023-04-28T22:53:44;6.13;;;4.43;;
26269;SDS011;15937;50.612;6.656;2023-04-28T22:57:47;6.57;;;4.75;;
26269;SDS011;15937;50.612;6.656;2023-04-28T23:01:49;5.80;;;4.75;;
26269;SDS011;15937;50.612;6.656;2023-04-28T23:05:51;6.80;;;5.40;;
26269;SDS011;15937;50.612;6.656;2023-04-28T23:09:53;9.18;;;6.63;;
26269;SDS011;15937;50.612;6.656;2023-04-28T23:13:54;12.18;;;8.05;;
26269;SDS011;15937;50.612;6.656;2023-04-28T23:17:56;13.02;;;8.93;;
26269;SDS011;15937;50.612;6.656;2023-04-28T23:21:58;16.42;;;10.20;;
26269;SDS011;15937;50.612;6.656;2023-04-28T23:26:00;18.15;;;11.52;;
26269;SDS011;15937;50.612;6.656;2023-04-28T23:30:02;20.05;;;11.27;;
26269;SDS011;15937;50.612;6.656;2023-04-28T23:34:07;19.67;;;12.15;;
26269;SDS011;15937;50.612;6.656;2023-04-28T23:38:09;22.17;;;12.95;;
26269;SDS011;15937;50.612;6.656;2023-04-28T23:42:11;25.48;;;13.77;;
26269;SDS011;15937;50.612;6.656;2023-04-28T23:46:13;21.52;;;12.48;;
26269;SDS011;15937;50.612;6.656;2023-04-28T23:50:15;25.58;;;15.02;;
26269;SDS011;15937;50.612;6.656;2023-04-28T23:54:17;28.23;;;14.60;;
26269;SDS011;15937;50.612;6.656;2023-04-28T23:58:19;24.52;;;15.13;;
